createdAt,value
2018-10-12T00:00:39.924Z,14.70
2018-10-12T00:03:07.489Z,14.80
2018-10-12T00:05:35.059Z,14.90
2018-10-12T00:08:02.631Z,15.00
2018-10-12T00:10:30.252Z,15.10
2018-10-12T00:12:57.843Z,15.60
2018-10-12T00:15:25.435Z,16.00
2018-10-12T00:17:52.996Z,16.30
2018-10-12T00:20:20.526Z,16.60
2018-10-12T00:22:48.073Z,16.70
2018-10-12T00:25:15.617Z,16.70
2018-10-12T00:27:43.137Z,16.80
2018-10-12T00:30:10.729Z,16.80
2018-10-12T00:32:38.247Z,17.00
2018-10-12T00:35:05.871Z,17.00
2018-10-12T00:37:33.437Z,17.20
2018-10-12T00:40:01.040Z,17.20
2018-10-12T00:42:28.635Z,17.20
2018-10-12T00:44:56.192Z,17.30
2018-10-12T00:47:23.777Z,17.30
2018-10-12T00:49:51.387Z,17.30
2018-10-12T00:52:18.890Z,17.50
2018-10-12T00:54:46.468Z,17.60
2018-10-12T00:57:14.044Z,17.40
2018-10-12T00:59:41.634Z,17.60
2018-10-12T01:02:09.264Z,17.60
2018-10-12T01:04:36.841Z,17.60
2018-10-12T01:07:04.396Z,17.50
2018-10-12T01:09:31.975Z,17.40
2018-10-12T01:12:05.198Z,17.50
2018-10-12T01:14:32.802Z,17.40
2018-10-12T01:17:00.412Z,17.70
2018-10-12T01:19:34.313Z,17.70
2018-10-12T01:22:01.864Z,17.70
2018-10-12T01:24:29.481Z,17.60
2018-10-12T01:26:57.125Z,17.40
2018-10-12T01:29:24.664Z,17.20
2018-10-12T01:31:52.272Z,17.20
2018-10-12T01:34:19.876Z,17.30
2018-10-12T01:36:47.470Z,17.50
2018-10-12T01:39:15.039Z,17.60
2018-10-12T01:41:42.601Z,17.60
2018-10-12T01:44:10.177Z,17.50
2018-10-12T01:46:37.753Z,17.60
2018-10-12T01:49:05.285Z,17.60
2018-10-12T01:51:32.925Z,17.70
2018-10-12T01:54:00.475Z,17.40
2018-10-12T01:56:28.036Z,17.30
2018-10-12T01:58:55.585Z,17.40
2018-10-12T02:01:23.333Z,17.40
2018-10-12T02:03:50.944Z,17.40
2018-10-12T02:06:18.516Z,17.40
2018-10-12T02:08:46.086Z,17.40
2018-10-12T02:11:13.692Z,17.30
2018-10-12T02:13:41.242Z,17.40
2018-10-12T02:16:08.766Z,17.40
2018-10-12T02:18:36.343Z,17.30
2018-10-12T02:21:03.952Z,17.30
2018-10-12T02:23:31.545Z,17.40
2018-10-12T02:25:59.151Z,17.50
2018-10-12T02:28:26.693Z,17.20
2018-10-12T02:33:28.273Z,15.90
2018-10-12T02:38:40.731Z,15.70
2018-10-12T02:41:08.346Z,16.00
2018-10-12T02:43:35.891Z,16.40
2018-10-12T02:46:03.464Z,16.60
2018-10-12T02:48:30.995Z,17.00
2018-10-12T02:50:58.547Z,17.10
2018-10-12T02:53:26.109Z,17.10
2018-10-12T02:55:53.651Z,17.20
2018-10-12T02:58:21.206Z,17.30
2018-10-12T03:00:48.722Z,17.40
2018-10-12T03:03:16.356Z,17.30
2018-10-12T03:05:43.950Z,17.30
2018-10-12T03:08:11.535Z,17.30
2018-10-12T03:10:39.152Z,17.20
2018-10-12T03:13:06.721Z,17.30
2018-10-12T03:15:34.242Z,17.30
2018-10-12T03:18:01.822Z,17.20
2018-10-12T03:20:29.426Z,17.30
2018-10-12T03:22:56.999Z,17.30
2018-10-12T03:25:24.570Z,17.40
2018-10-12T03:27:58.011Z,17.40
2018-10-12T03:30:25.653Z,17.30
2018-10-12T03:32:53.210Z,17.30
2018-10-12T03:35:20.769Z,17.30
2018-10-12T03:37:48.339Z,17.30
2018-10-12T03:40:15.918Z,17.30
2018-10-12T03:42:43.434Z,17.30
2018-10-12T03:45:11.031Z,17.30
2018-10-12T03:47:38.621Z,17.30
2018-10-12T03:50:06.233Z,17.40
2018-10-12T03:52:33.782Z,17.50
2018-10-12T03:55:01.348Z,17.40
2018-10-12T03:57:28.919Z,17.30
2018-10-12T03:59:56.491Z,17.40
2018-10-12T04:02:24.039Z,17.40
2018-10-12T04:04:51.631Z,17.00
2018-10-12T04:07:19.224Z,16.30
2018-10-12T04:09:46.798Z,16.00
2018-10-12T04:12:14.332Z,15.60
2018-10-12T04:14:41.950Z,15.90
2018-10-12T04:17:09.509Z,16.30
2018-10-12T04:19:37.075Z,16.70
2018-10-12T04:22:04.655Z,16.60
2018-10-12T04:24:32.242Z,16.40
2018-10-12T04:26:59.799Z,16.10
2018-10-12T04:29:27.323Z,16.50
2018-10-12T04:31:54.871Z,16.70
2018-10-12T04:34:22.436Z,16.20
2018-10-12T04:36:50.028Z,15.70
2018-10-12T04:39:23.246Z,15.70
2018-10-12T04:41:50.822Z,15.90
2018-10-12T04:44:18.363Z,15.90
2018-10-12T04:46:45.942Z,16.10
2018-10-12T04:49:14.510Z,16.40
2018-10-12T04:51:42.917Z,16.60
2018-10-12T04:54:10.708Z,16.70
2018-10-12T04:56:38.297Z,16.80
2018-10-12T04:59:05.861Z,16.80
2018-10-12T05:01:33.556Z,16.90
2018-10-12T05:04:01.103Z,16.90
2018-10-12T05:06:29.651Z,16.70
2018-10-12T05:08:57.203Z,16.70
2018-10-12T05:11:24.778Z,16.60
2018-10-12T05:13:52.372Z,16.70
2018-10-12T05:16:19.930Z,16.70
2018-10-12T05:18:47.511Z,16.80
2018-10-12T05:21:15.041Z,16.80
2018-10-12T05:23:49.081Z,16.50
2018-10-12T05:26:16.664Z,16.70
2018-10-12T05:28:44.309Z,16.60
2018-10-12T05:31:11.907Z,16.60
2018-10-12T05:33:39.472Z,16.60
2018-10-12T05:36:07.109Z,16.40
2018-10-12T05:38:34.786Z,16.10
2018-10-12T05:41:02.531Z,15.70
2018-10-12T05:43:42.323Z,15.60
2018-10-12T05:46:09.877Z,15.60
2018-10-12T05:48:43.226Z,16.00
2018-10-12T05:51:11.837Z,15.90
2018-10-12T05:53:39.487Z,15.70
2018-10-12T05:56:07.514Z,15.70
2018-10-12T05:58:35.397Z,15.50
2018-10-12T06:01:02.952Z,15.60
2018-10-12T06:03:30.554Z,15.80
2018-10-12T06:05:58.251Z,15.80
2018-10-12T06:08:25.795Z,15.80
2018-10-12T06:10:53.377Z,16.00
2018-10-12T06:13:20.965Z,16.20
2018-10-12T06:15:48.557Z,16.30
2018-10-12T06:18:16.062Z,16.40
2018-10-12T06:20:43.619Z,16.50
2018-10-12T06:23:11.207Z,16.30
2018-10-12T06:25:38.794Z,16.30
2018-10-12T06:28:06.355Z,16.30
2018-10-12T06:30:33.890Z,16.10
2018-10-12T06:35:35.597Z,16.20
2018-10-12T06:38:03.191Z,16.30
2018-10-12T06:40:31.351Z,16.40
2018-10-12T06:42:58.928Z,16.40
2018-10-12T06:45:26.525Z,16.50
2018-10-12T06:47:54.095Z,16.60
2018-10-12T06:50:21.690Z,16.70
2018-10-12T06:52:49.297Z,16.80
2018-10-12T06:55:16.867Z,16.70
2018-10-12T06:57:44.464Z,16.70
2018-10-12T07:00:12.039Z,16.80
2018-10-12T07:02:39.672Z,16.90
2018-10-12T07:05:07.282Z,16.90
2018-10-12T07:07:34.897Z,17.00
2018-10-12T07:10:02.514Z,17.00
2018-10-12T07:12:30.037Z,17.20
2018-10-12T07:14:57.628Z,17.20
2018-10-12T07:17:25.229Z,17.30
2018-10-12T07:19:52.815Z,17.30
2018-10-12T07:22:20.348Z,17.30
2018-10-12T07:24:47.953Z,17.30
2018-10-12T07:27:15.519Z,17.50
2018-10-12T07:29:43.087Z,17.60
2018-10-12T07:32:10.656Z,17.60
2018-10-12T07:34:38.233Z,17.70
2018-10-12T07:37:05.853Z,17.80
2018-10-12T07:39:33.424Z,17.90
2018-10-12T07:42:00.998Z,17.90
2018-10-12T07:44:28.565Z,17.90
2018-10-12T07:46:56.127Z,18.00
2018-10-12T07:49:23.695Z,18.00
2018-10-12T07:51:51.222Z,18.10
2018-10-12T07:54:18.768Z,18.30
2018-10-12T07:56:46.301Z,18.40
2018-10-12T07:59:13.926Z,18.30
2018-10-12T08:01:41.485Z,18.40
2018-10-12T08:04:09.105Z,18.70
2018-10-12T08:06:36.739Z,18.90
2018-10-12T08:09:05.802Z,19.00
2018-10-12T08:11:33.385Z,19.00
2018-10-12T08:14:01.095Z,19.10
2018-10-12T08:16:28.676Z,19.50
2018-10-12T08:18:56.238Z,19.60
2018-10-12T08:21:23.840Z,19.90
2018-10-12T08:23:51.440Z,19.80
2018-10-12T08:26:19.011Z,19.90
2018-10-12T08:28:46.588Z,20.20
2018-10-12T08:31:14.226Z,20.30
2018-10-12T08:33:41.774Z,20.40
2018-10-12T08:36:09.694Z,20.60
2018-10-12T08:38:37.252Z,20.60
2018-10-12T08:41:04.855Z,20.60
2018-10-12T08:43:32.474Z,20.90
2018-10-12T08:46:00.057Z,20.90
2018-10-12T08:48:27.630Z,20.90
2018-10-12T08:50:55.205Z,21.20
2018-10-12T08:53:22.763Z,21.20
2018-10-12T08:55:50.303Z,21.30
2018-10-12T08:58:17.871Z,21.30
2018-10-12T09:00:45.464Z,21.50
2018-10-12T09:03:13.044Z,21.70
2018-10-12T09:05:40.595Z,21.40
2018-10-12T09:08:08.175Z,22.00
2018-10-12T09:10:35.889Z,22.30
2018-10-12T09:13:03.439Z,22.30
2018-10-12T09:15:31.000Z,22.50
2018-10-12T09:17:58.566Z,22.70
2018-10-12T09:20:26.249Z,22.50
2018-10-12T09:22:53.730Z,23.00
2018-10-12T09:25:21.337Z,23.00
2018-10-12T09:27:48.923Z,23.10
2018-10-12T09:30:23.142Z,23.10
2018-10-12T09:32:50.651Z,23.10
2018-10-12T09:35:23.947Z,23.20
2018-10-12T09:37:51.509Z,22.90
2018-10-12T09:40:19.088Z,22.90
2018-10-12T09:42:46.676Z,23.30
2018-10-12T09:45:14.280Z,23.40
2018-10-12T09:47:41.892Z,23.40
2018-10-12T09:50:09.526Z,23.40
2018-10-12T09:52:37.087Z,23.60
2018-10-12T09:55:04.793Z,23.70
2018-10-12T09:57:34.422Z,23.70
2018-10-12T10:00:02.017Z,23.60
2018-10-12T10:02:35.018Z,23.60
2018-10-12T10:05:10.672Z,23.80
2018-10-12T10:07:38.983Z,23.80
2018-10-12T10:10:06.788Z,23.90
2018-10-12T10:12:34.382Z,23.90
2018-10-12T10:15:01.951Z,23.90
2018-10-12T10:17:29.565Z,23.90
2018-10-12T10:19:57.261Z,24.00
2018-10-12T10:22:24.886Z,23.90
2018-10-12T10:24:52.548Z,23.60
2018-10-12T10:27:26.840Z,24.10
2018-10-12T10:29:54.488Z,24.10
2018-10-12T10:32:22.093Z,24.20
2018-10-12T10:34:49.697Z,24.30
2018-10-12T10:37:17.277Z,24.30
2018-10-12T10:39:44.835Z,24.20
2018-10-12T10:42:12.394Z,23.70
2018-10-12T10:44:39.960Z,24.00
2018-10-12T10:47:07.707Z,24.10
2018-10-12T10:49:35.310Z,24.40
2018-10-12T10:52:02.886Z,24.60
2018-10-12T10:54:30.693Z,24.40
2018-10-12T10:57:03.790Z,24.50
2018-10-12T10:59:32.151Z,24.70
2018-10-12T11:01:59.747Z,24.50
2018-10-12T11:04:27.889Z,24.60
2018-10-12T11:09:29.477Z,24.60
2018-10-12T11:11:57.328Z,24.50
2018-10-12T11:14:24.947Z,24.80
2018-10-12T11:16:52.488Z,24.80
2018-10-12T11:19:20.215Z,25.00
2018-10-12T11:21:47.731Z,24.40
2018-10-12T11:24:15.290Z,24.50
2018-10-12T11:26:42.856Z,24.70
2018-10-12T11:29:10.379Z,25.00
2018-10-12T11:31:37.916Z,24.70
2018-10-12T11:34:05.655Z,24.60
2018-10-12T11:36:33.214Z,24.80
2018-10-12T11:39:00.805Z,24.90
2018-10-12T11:41:28.372Z,24.90
2018-10-12T11:43:55.883Z,24.90
2018-10-12T11:46:23.521Z,24.50
2018-10-12T11:48:51.124Z,24.50
2018-10-12T11:51:18.687Z,24.50
2018-10-12T11:53:46.241Z,24.90
2018-10-12T11:56:13.848Z,25.20
2018-10-12T11:58:41.440Z,25.10
2018-10-12T12:01:09.175Z,24.80
2018-10-12T12:03:36.670Z,24.30
2018-10-12T12:06:04.321Z,24.60
2018-10-12T12:08:31.851Z,24.80
2018-10-12T12:10:59.400Z,24.60
2018-10-12T12:13:27.036Z,24.20
2018-10-12T12:15:54.557Z,24.30
2018-10-12T12:18:22.108Z,24.30
2018-10-12T12:20:49.656Z,24.30
2018-10-12T12:23:17.253Z,24.70
2018-10-12T12:25:44.832Z,24.60
2018-10-12T12:28:12.402Z,24.80
2018-10-12T12:30:39.977Z,24.60
2018-10-12T12:33:07.604Z,24.80
2018-10-12T12:35:35.533Z,24.50
2018-10-12T12:38:02.772Z,24.50
2018-10-12T12:40:30.329Z,24.50
2018-10-12T12:42:57.960Z,24.20
2018-10-12T12:45:25.523Z,24.30
2018-10-12T12:47:53.258Z,24.30
2018-10-12T12:50:20.690Z,24.70
2018-10-12T12:52:48.265Z,24.90
2018-10-12T12:55:15.792Z,24.90
2018-10-12T12:57:43.353Z,25.30
2018-10-12T13:00:10.996Z,25.10
2018-10-12T13:02:38.570Z,25.10
2018-10-12T13:05:06.091Z,25.10
2018-10-12T13:07:33.635Z,25.10
2018-10-12T13:10:01.224Z,25.10
2018-10-12T13:12:28.836Z,24.50
2018-10-12T13:14:56.409Z,24.80
2018-10-12T13:17:23.963Z,24.80
2018-10-12T13:19:51.592Z,25.10
2018-10-12T13:22:19.126Z,25.20
2018-10-12T13:24:46.686Z,25.30
2018-10-12T13:27:16.250Z,25.40
2018-10-12T13:29:43.805Z,25.50
2018-10-12T13:32:11.360Z,25.50
2018-10-12T13:34:38.931Z,25.40
2018-10-12T13:37:06.500Z,25.10
2018-10-12T13:39:34.089Z,25.10
2018-10-12T13:42:01.674Z,25.40
2018-10-12T13:44:29.263Z,25.50
2018-10-12T13:46:56.839Z,25.60
2018-10-12T13:49:24.421Z,25.60
2018-10-12T13:51:52.015Z,25.70
2018-10-12T13:54:19.661Z,25.60
2018-10-12T13:56:47.223Z,25.40
2018-10-12T13:59:14.813Z,25.50
2018-10-12T14:01:42.406Z,25.50
2018-10-12T14:04:09.960Z,25.40
2018-10-12T14:06:37.596Z,25.40
2018-10-12T14:09:06.211Z,25.40
2018-10-12T14:11:33.914Z,25.40
2018-10-12T14:14:01.682Z,25.60
2018-10-12T14:16:29.247Z,25.60
2018-10-12T14:18:56.952Z,25.70
2018-10-12T14:21:24.520Z,25.70
2018-10-12T14:23:52.104Z,25.70
2018-10-12T14:26:19.656Z,25.70
2018-10-12T14:28:47.239Z,25.60
2018-10-12T14:31:14.818Z,25.30
2018-10-12T14:33:42.349Z,25.40
2018-10-12T14:36:09.890Z,25.40
2018-10-12T14:38:37.488Z,25.40
2018-10-12T14:41:05.048Z,25.40
2018-10-12T14:43:32.571Z,25.20
2018-10-12T14:46:00.167Z,25.40
2018-10-12T14:48:27.722Z,25.50
2018-10-12T14:50:55.463Z,25.70
2018-10-12T14:53:23.074Z,25.70
2018-10-12T14:55:50.614Z,25.80
2018-10-12T14:58:18.284Z,25.80
2018-10-12T15:00:45.987Z,25.70
2018-10-12T15:03:13.606Z,25.80
2018-10-12T15:05:41.235Z,25.80
2018-10-12T15:08:09.068Z,25.80
2018-10-12T15:10:36.649Z,25.80
2018-10-12T15:13:04.285Z,25.80
2018-10-12T15:15:31.897Z,25.90
2018-10-12T15:17:59.895Z,25.90
2018-10-12T15:20:27.477Z,26.00
2018-10-12T15:22:55.055Z,26.00
2018-10-12T15:25:22.761Z,26.00
2018-10-12T15:30:36.268Z,26.00
2018-10-12T15:33:03.830Z,26.00
2018-10-12T15:35:31.406Z,26.00
2018-10-12T15:37:59.038Z,26.00
2018-10-12T15:40:26.629Z,26.10
2018-10-12T15:42:54.608Z,26.00
2018-10-12T15:45:22.165Z,26.00
2018-10-12T15:47:49.789Z,26.00
2018-10-12T15:50:17.400Z,25.90
2018-10-12T15:58:04.920Z,25.80
2018-10-12T16:00:32.491Z,25.80
2018-10-12T16:03:00.192Z,25.80
2018-10-12T16:05:27.806Z,25.60
2018-10-12T16:07:55.404Z,25.60
2018-10-12T16:10:23.990Z,25.60
2018-10-12T16:12:51.494Z,25.50
2018-10-12T16:15:19.286Z,25.50
2018-10-12T16:17:46.849Z,25.40
2018-10-12T16:20:14.467Z,25.20
2018-10-12T16:25:21.596Z,25.10
2018-10-12T16:27:49.156Z,25.10
2018-10-12T16:30:16.671Z,25.10
2018-10-12T16:32:44.183Z,25.00
2018-10-12T16:35:11.805Z,25.00
2018-10-12T16:37:39.369Z,24.90
2018-10-12T16:40:07.019Z,24.80
2018-10-12T16:42:34.589Z,24.80
2018-10-12T16:45:02.198Z,24.80
2018-10-12T16:47:29.832Z,24.70
2018-10-12T16:50:03.661Z,24.70
2018-10-12T16:52:31.223Z,24.60
2018-10-12T16:54:58.794Z,24.50
2018-10-12T16:57:30.896Z,24.40
2018-10-12T16:59:58.688Z,24.30
2018-10-12T17:02:26.274Z,24.20
2018-10-12T17:04:53.866Z,24.20
2018-10-12T17:07:21.449Z,24.00
2018-10-12T17:09:49.064Z,24.10
2018-10-12T17:12:16.661Z,24.10
2018-10-12T17:14:44.212Z,24.00
2018-10-12T17:17:11.847Z,24.10
2018-10-12T17:19:39.533Z,24.00
2018-10-12T17:22:07.218Z,23.90
2018-10-12T17:24:34.968Z,24.00
2018-10-12T17:27:02.612Z,23.90
2018-10-12T17:29:30.291Z,23.80
2018-10-12T17:31:58.059Z,23.80
2018-10-12T17:34:25.782Z,23.80
2018-10-12T17:36:53.399Z,23.80
2018-10-12T17:39:21.073Z,23.70
2018-10-12T17:41:48.892Z,23.80
2018-10-12T17:44:16.493Z,23.80
2018-10-12T17:46:45.600Z,23.60
2018-10-12T17:49:13.274Z,23.60
2018-10-12T17:51:40.886Z,23.60
2018-10-12T17:54:08.443Z,23.50
2018-10-12T17:56:36.032Z,23.60
2018-10-12T17:59:03.642Z,23.40
2018-10-12T18:01:31.261Z,23.40
2018-10-12T18:03:58.865Z,23.30
2018-10-12T18:06:26.441Z,23.30
2018-10-12T18:08:54.071Z,23.30
2018-10-12T18:11:21.769Z,23.30
2018-10-12T18:13:49.351Z,23.20
2018-10-12T18:16:16.906Z,23.30
2018-10-12T18:18:44.510Z,23.30
2018-10-12T18:21:12.120Z,23.10
2018-10-12T18:23:39.792Z,23.10
2018-10-12T18:26:07.405Z,23.20
2018-10-12T18:28:34.950Z,23.30
2018-10-12T18:31:02.508Z,23.40
2018-10-12T18:33:30.035Z,23.30
2018-10-12T18:35:57.680Z,23.10
2018-10-12T18:38:25.241Z,23.10
2018-10-12T18:40:52.811Z,23.00
2018-10-12T18:43:26.532Z,23.00
2018-10-12T18:45:54.351Z,22.80
2018-10-12T18:48:21.936Z,22.80
2018-10-12T18:50:49.514Z,22.80
2018-10-12T18:53:17.096Z,22.70
2018-10-12T18:55:44.653Z,22.60
2018-10-12T18:58:12.201Z,22.50
2018-10-12T19:00:39.766Z,22.60
2018-10-12T19:03:07.448Z,22.70
2018-10-12T19:05:35.030Z,22.80
2018-10-12T19:08:02.606Z,22.60
2018-10-12T19:10:30.187Z,22.60
2018-10-12T19:12:57.751Z,22.60
2018-10-12T19:15:25.439Z,22.40
2018-10-12T19:17:53.006Z,22.50
2018-10-12T19:20:20.595Z,22.30
2018-10-12T19:22:48.190Z,22.30
2018-10-12T19:25:15.710Z,22.40
2018-10-12T19:27:43.289Z,22.40
2018-10-12T19:30:10.870Z,22.50
2018-10-12T19:32:38.464Z,22.40
2018-10-12T19:35:06.264Z,21.90
2018-10-12T19:37:33.841Z,21.70
2018-10-12T19:40:01.441Z,21.90
2018-10-12T19:42:35.085Z,22.00
2018-10-12T19:45:02.648Z,22.10
2018-10-12T19:47:30.218Z,22.10
2018-10-12T19:49:57.737Z,22.00
2018-10-12T19:52:25.401Z,22.10
2018-10-12T19:54:52.993Z,22.20
2018-10-12T19:57:20.598Z,22.10
2018-10-12T19:59:48.141Z,22.00
2018-10-12T20:02:15.727Z,21.90
2018-10-12T20:04:43.303Z,22.00
2018-10-12T20:07:10.845Z,22.10
2018-10-12T20:09:38.417Z,22.10
2018-10-12T20:12:05.980Z,21.90
2018-10-12T20:14:33.630Z,21.80
2018-10-12T20:17:01.218Z,21.80
2018-10-12T20:19:28.771Z,21.80
2018-10-12T20:21:56.360Z,21.90
2018-10-12T20:24:24.052Z,21.90
2018-10-12T20:26:51.540Z,21.90
2018-10-12T20:29:19.087Z,21.90
2018-10-12T20:31:46.591Z,22.00
2018-10-12T20:34:14.172Z,21.80
2018-10-12T20:36:41.699Z,21.80
2018-10-12T20:39:10.941Z,21.70
2018-10-12T20:41:38.549Z,21.80
2018-10-12T20:44:06.571Z,21.70
2018-10-12T20:46:34.148Z,21.70
2018-10-12T20:49:01.752Z,21.70
2018-10-12T20:51:29.331Z,21.50
2018-10-12T20:53:56.867Z,21.50
2018-10-12T20:56:24.647Z,21.50
2018-10-12T20:58:52.353Z,21.50
2018-10-12T21:01:19.896Z,21.50
2018-10-12T21:03:47.494Z,21.50
2018-10-12T21:06:15.010Z,21.40
2018-10-12T21:08:42.608Z,21.50
2018-10-12T21:11:10.198Z,21.40
2018-10-12T21:16:23.938Z,21.40
2018-10-12T21:18:51.541Z,21.30
2018-10-12T21:21:19.087Z,21.30
2018-10-12T21:23:46.680Z,21.20
2018-10-12T21:26:14.247Z,21.30
2018-10-12T21:28:41.829Z,21.10
2018-10-12T21:31:09.403Z,21.20
2018-10-12T21:33:43.711Z,21.20
2018-10-12T21:36:11.498Z,21.30
2018-10-12T21:38:39.116Z,21.10
2018-10-12T21:41:06.775Z,21.20
2018-10-12T21:43:34.524Z,21.30
2018-10-12T21:46:02.142Z,21.30
2018-10-12T21:48:29.733Z,21.20
2018-10-12T21:50:57.319Z,21.20
2018-10-12T21:53:24.890Z,21.00
2018-10-12T21:55:52.460Z,21.10
2018-10-12T21:58:20.042Z,21.10
2018-10-12T22:00:53.234Z,21.10
2018-10-12T22:03:20.793Z,21.20
2018-10-12T22:05:48.346Z,21.00
2018-10-12T22:08:21.347Z,21.10
2018-10-12T22:10:48.907Z,20.90
2018-10-12T22:13:16.476Z,21.00
2018-10-12T22:15:44.070Z,21.00
2018-10-12T22:18:11.649Z,21.10
2018-10-12T22:20:39.234Z,21.10
2018-10-12T22:23:06.804Z,21.10
2018-10-12T22:25:34.438Z,21.00
2018-10-12T22:28:02.023Z,21.10
2018-10-12T22:30:29.618Z,21.10
2018-10-12T22:32:57.225Z,21.10
2018-10-12T22:35:24.757Z,21.00
2018-10-12T22:37:52.331Z,21.00
2018-10-12T22:40:19.888Z,21.00
2018-10-12T22:42:47.571Z,21.20
2018-10-12T22:45:15.088Z,21.20
2018-10-12T22:47:42.682Z,21.00
2018-10-12T22:50:10.266Z,21.10
2018-10-12T22:52:37.851Z,21.10
2018-10-12T22:55:05.426Z,21.10
2018-10-12T22:57:32.977Z,21.20
2018-10-12T23:00:00.503Z,21.10
2018-10-12T23:02:28.019Z,21.10
2018-10-12T23:04:55.573Z,21.10
2018-10-12T23:07:23.132Z,21.20
2018-10-12T23:09:50.648Z,21.20
2018-10-12T23:12:18.220Z,21.10
2018-10-12T23:14:45.807Z,21.10
2018-10-12T23:17:13.410Z,21.00
2018-10-12T23:19:41.011Z,21.00
2018-10-12T23:22:08.572Z,21.10
2018-10-12T23:24:36.136Z,21.10
2018-10-12T23:27:03.796Z,21.20
2018-10-12T23:29:31.319Z,21.20
2018-10-12T23:31:58.908Z,21.00
2018-10-12T23:34:26.450Z,21.00
2018-10-12T23:36:53.992Z,20.90
2018-10-12T23:39:21.531Z,21.00
2018-10-12T23:41:49.090Z,21.10
2018-10-12T23:44:16.701Z,21.00
2018-10-12T23:46:44.223Z,21.00
2018-10-12T23:49:11.779Z,20.80
2018-10-12T23:51:39.332Z,20.90
2018-10-12T23:54:06.862Z,21.00
2018-10-12T23:56:34.387Z,21.00
2018-10-12T23:59:01.935Z,21.10
